sensor_id;sensor_type;location;lat;lon;timestamp;P1;durP1;ratioP1;P2;durP2;ratioP2
68074;SDS011;54864;52.002;5.468;2023-12-07T00:00:04;19.90;;;14.35;;
68074;SDS011;54864;52.002;5.468;2023-12-07T00:01:27;21.52;;;14.88;;
68074;SDS011;54864;52.002;5.468;2023-12-07T00:02:49;21.10;;;14.07;;
68074;SDS011;54864;52.002;5.468;2023-12-07T00:04:11;19.60;;;14.02;;
68074;SDS011;54864;52.002;5.468;2023-12-07T00:05:32;20.38;;;13.57;;
68074;SDS011;54864;52.002;5.468;2023-12-07T00:06:55;20.17;;;14.05;;
68074;SDS011;54864;52.002;5.468;2023-12-07T00:08:16;20.65;;;14.35;;
68074;SDS011;54864;52.002;5.468;2023-12-07T00:09:38;20.75;;;13.98;;
68074;SDS011;54864;52.002;5.468;2023-12-07T00:10:59;23.17;;;14.88;;
68074;SDS011;54864;52.002;5.468;2023-12-07T00:12:21;23.25;;;14.02;;
68074;SDS011;54864;52.002;5.468;2023-12-07T00:13:42;20.85;;;15.05;;
68074;SDS011;54864;52.002;5.468;2023-12-07T00:15:05;23.02;;;13.95;;
68074;SDS011;54864;52.002;5.468;2023-12-07T00:16:27;23.45;;;15.10;;
68074;SDS011;54864;52.002;5.468;2023-12-07T00:17:50;20.33;;;14.37;;
68074;SDS011;54864;52.002;5.468;2023-12-07T00:19:11;19.52;;;14.75;;
68074;SDS011;54864;52.002;5.468;2023-12-07T00:20:33;21.17;;;14.88;;
68074;SDS011;54864;52.002;5.468;2023-12-07T00:21:54;25.92;;;16.15;;
68074;SDS011;54864;52.002;5.468;2023-12-07T00:23:17;20.05;;;15.07;;
68074;SDS011;54864;52.002;5.468;2023-12-07T00:24:38;19.60;;;14.38;;
68074;SDS011;54864;52.002;5.468;2023-12-07T00:26:00;20.63;;;14.23;;
68074;SDS011;54864;52.002;5.468;2023-12-07T00:27:21;19.80;;;14.10;;
68074;SDS011;54864;52.002;5.468;2023-12-07T00:28:43;20.50;;;14.63;;
68074;SDS011;54864;52.002;5.468;2023-12-07T00:30:04;20.33;;;14.63;;
68074;SDS011;54864;52.002;5.468;2023-12-07T00:31:27;22.20;;;14.48;;
68074;SDS011;54864;52.002;5.468;2023-12-07T00:32:49;24.42;;;15.27;;
68074;SDS011;54864;52.002;5.468;2023-12-07T00:34:11;24.75;;;15.20;;
68074;SDS011;54864;52.002;5.468;2023-12-07T00:35:32;23.67;;;15.15;;
68074;SDS011;54864;52.002;5.468;2023-12-07T00:36:54;21.70;;;15.02;;
68074;SDS011;54864;52.002;5.468;2023-12-07T00:38:15;20.05;;;14.45;;
68074;SDS011;54864;52.002;5.468;2023-12-07T00:39:38;23.60;;;15.45;;
68074;SDS011;54864;52.002;5.468;2023-12-07T00:41:01;21.55;;;15.10;;
68074;SDS011;54864;52.002;5.468;2023-12-07T00:42:23;20.17;;;14.20;;
68074;SDS011;54864;52.002;5.468;2023-12-07T00:43:44;22.27;;;15.07;;
68074;SDS011;54864;52.002;5.468;2023-12-07T00:45:07;20.93;;;14.63;;
68074;SDS011;54864;52.002;5.468;2023-12-07T00:46:28;20.88;;;14.30;;
68074;SDS011;54864;52.002;5.468;2023-12-07T00:47:52;21.50;;;13.90;;
68074;SDS011;54864;52.002;5.468;2023-12-07T00:49:13;19.98;;;13.95;;
68074;SDS011;54864;52.002;5.468;2023-12-07T00:50:35;20.85;;;15.13;;
68074;SDS011;54864;52.002;5.468;2023-12-07T00:51:56;19.40;;;14.77;;
68074;SDS011;54864;52.002;5.468;2023-12-07T00:53:18;23.35;;;15.18;;
68074;SDS011;54864;52.002;5.468;2023-12-07T00:54:39;22.50;;;13.98;;
68074;SDS011;54864;52.002;5.468;2023-12-07T00:56:02;21.95;;;13.95;;
68074;SDS011;54864;52.002;5.468;2023-12-07T00:57:23;19.27;;;14.80;;
68074;SDS011;54864;52.002;5.468;2023-12-07T00:58:46;20.03;;;14.83;;
68074;SDS011;54864;52.002;5.468;2023-12-07T01:00:08;19.90;;;15.23;;
68074;SDS011;54864;52.002;5.468;2023-12-07T01:01:31;24.33;;;15.05;;
68074;SDS011;54864;52.002;5.468;2023-12-07T01:02:53;19.55;;;14.23;;
68074;SDS011;54864;52.002;5.468;2023-12-07T01:04:16;19.35;;;14.95;;
68074;SDS011;54864;52.002;5.468;2023-12-07T01:05:38;25.88;;;15.27;;
68074;SDS011;54864;52.002;5.468;2023-12-07T01:07:00;22.80;;;14.85;;
68074;SDS011;54864;52.002;5.468;2023-12-07T01:08:21;23.13;;;14.88;;
68074;SDS011;54864;52.002;5.468;2023-12-07T01:09:43;19.38;;;14.63;;
68074;SDS011;54864;52.002;5.468;2023-12-07T01:11:04;19.52;;;14.65;;
68074;SDS011;54864;52.002;5.468;2023-12-07T01:12:33;21.63;;;14.43;;
68074;SDS011;54864;52.002;5.468;2023-12-07T01:13:54;23.38;;;15.48;;
68074;SDS011;54864;52.002;5.468;2023-12-07T01:15:16;23.02;;;14.63;;
68074;SDS011;54864;52.002;5.468;2023-12-07T01:16:37;20.48;;;14.45;;
68074;SDS011;54864;52.002;5.468;2023-12-07T01:18:00;27.20;;;14.57;;
68074;SDS011;54864;52.002;5.468;2023-12-07T01:19:21;22.73;;;15.68;;
68074;SDS011;54864;52.002;5.468;2023-12-07T01:20:43;22.15;;;14.80;;
68074;SDS011;54864;52.002;5.468;2023-12-07T01:22:07;24.27;;;15.18;;
68074;SDS011;54864;52.002;5.468;2023-12-07T01:23:29;20.90;;;14.63;;
68074;SDS011;54864;52.002;5.468;2023-12-07T01:24:50;23.92;;;13.88;;
68074;SDS011;54864;52.002;5.468;2023-12-07T01:26:13;23.42;;;15.43;;
68074;SDS011;54864;52.002;5.468;2023-12-07T01:27:34;27.10;;;15.05;;
68074;SDS011;54864;52.002;5.468;2023-12-07T01:28:56;22.65;;;15.38;;
68074;SDS011;54864;52.002;5.468;2023-12-07T01:30:17;23.60;;;14.80;;
68074;SDS011;54864;52.002;5.468;2023-12-07T01:31:39;21.65;;;14.07;;
68074;SDS011;54864;52.002;5.468;2023-12-07T01:33:02;24.20;;;14.57;;
68074;SDS011;54864;52.002;5.468;2023-12-07T01:34:24;20.80;;;13.80;;
68074;SDS011;54864;52.002;5.468;2023-12-07T01:35:45;20.20;;;14.65;;
68074;SDS011;54864;52.002;5.468;2023-12-07T01:37:07;20.88;;;14.15;;
68074;SDS011;54864;52.002;5.468;2023-12-07T01:38:29;17.67;;;13.20;;
68074;SDS011;54864;52.002;5.468;2023-12-07T01:39:51;21.55;;;14.32;;
68074;SDS011;54864;52.002;5.468;2023-12-07T01:41:12;20.00;;;14.60;;
68074;SDS011;54864;52.002;5.468;2023-12-07T01:42:34;22.20;;;14.70;;
68074;SDS011;54864;52.002;5.468;2023-12-07T01:43:55;19.48;;;13.63;;
68074;SDS011;54864;52.002;5.468;2023-12-07T01:45:17;18.75;;;13.93;;
68074;SDS011;54864;52.002;5.468;2023-12-07T01:46:39;20.67;;;13.57;;
68074;SDS011;54864;52.002;5.468;2023-12-07T01:48:02;19.17;;;13.65;;
68074;SDS011;54864;52.002;5.468;2023-12-07T01:49:24;20.13;;;14.73;;
68074;SDS011;54864;52.002;5.468;2023-12-07T01:50:46;19.35;;;15.30;;
68074;SDS011;54864;52.002;5.468;2023-12-07T01:52:07;23.35;;;14.05;;
68074;SDS011;54864;52.002;5.468;2023-12-07T01:53:30;22.63;;;15.23;;
68074;SDS011;54864;52.002;5.468;2023-12-07T01:54:52;21.45;;;14.23;;
68074;SDS011;54864;52.002;5.468;2023-12-07T01:56:15;19.30;;;13.63;;
68074;SDS011;54864;52.002;5.468;2023-12-07T01:57:36;21.50;;;14.68;;
68074;SDS011;54864;52.002;5.468;2023-12-07T01:58:59;22.52;;;14.25;;
68074;SDS011;54864;52.002;5.468;2023-12-07T02:00:20;18.30;;;14.50;;
68074;SDS011;54864;52.002;5.468;2023-12-07T02:01:42;18.42;;;13.20;;
68074;SDS011;54864;52.002;5.468;2023-12-07T02:03:05;18.50;;;13.38;;
68074;SDS011;54864;52.002;5.468;2023-12-07T02:04:27;19.70;;;14.10;;
68074;SDS011;54864;52.002;5.468;2023-12-07T02:05:50;20.33;;;14.02;;
68074;SDS011;54864;52.002;5.468;2023-12-07T02:07:13;19.42;;;12.90;;
68074;SDS011;54864;52.002;5.468;2023-12-07T02:08:34;20.20;;;13.48;;
68074;SDS011;54864;52.002;5.468;2023-12-07T02:10:01;19.02;;;13.40;;
68074;SDS011;54864;52.002;5.468;2023-12-07T02:11:23;18.67;;;13.13;;
68074;SDS011;54864;52.002;5.468;2023-12-07T02:12:45;19.17;;;13.18;;
68074;SDS011;54864;52.002;5.468;2023-12-07T02:14:08;20.02;;;13.95;;
68074;SDS011;54864;52.002;5.468;2023-12-07T02:15:30;18.92;;;13.63;;
68074;SDS011;54864;52.002;5.468;2023-12-07T02:16:53;21.30;;;14.18;;
68074;SDS011;54864;52.002;5.468;2023-12-07T02:18:25;19.25;;;13.65;;
68074;SDS011;54864;52.002;5.468;2023-12-07T02:19:53;18.75;;;13.50;;
68074;SDS011;54864;52.002;5.468;2023-12-07T02:21:21;20.25;;;14.30;;
68074;SDS011;54864;52.002;5.468;2023-12-07T02:22:46;20.10;;;14.65;;
68074;SDS011;54864;52.002;5.468;2023-12-07T02:24:14;18.60;;;13.20;;
68074;SDS011;54864;52.002;5.468;2023-12-07T02:25:44;19.55;;;13.93;;
68074;SDS011;54864;52.002;5.468;2023-12-07T02:27:11;21.17;;;14.30;;
68074;SDS011;54864;52.002;5.468;2023-12-07T02:28:32;20.73;;;14.18;;
68074;SDS011;54864;52.002;5.468;2023-12-07T02:29:54;15.55;;;12.50;;
68074;SDS011;54864;52.002;5.468;2023-12-07T02:31:15;25.15;;;13.68;;
68074;SDS011;54864;52.002;5.468;2023-12-07T02:32:37;15.98;;;13.13;;
68074;SDS011;54864;52.002;5.468;2023-12-07T02:34:00;19.65;;;13.50;;
68074;SDS011;54864;52.002;5.468;2023-12-07T02:35:22;21.00;;;12.60;;
68074;SDS011;54864;52.002;5.468;2023-12-07T02:36:44;20.10;;;13.48;;
68074;SDS011;54864;52.002;5.468;2023-12-07T02:38:10;19.88;;;13.85;;
68074;SDS011;54864;52.002;5.468;2023-12-07T02:39:32;18.48;;;12.85;;
68074;SDS011;54864;52.002;5.468;2023-12-07T02:40:54;17.73;;;13.02;;
68074;SDS011;54864;52.002;5.468;2023-12-07T02:42:17;19.98;;;12.95;;
68074;SDS011;54864;52.002;5.468;2023-12-07T02:43:43;18.45;;;13.40;;
68074;SDS011;54864;52.002;5.468;2023-12-07T02:45:05;20.90;;;13.47;;
68074;SDS011;54864;52.002;5.468;2023-12-07T02:46:29;15.55;;;12.52;;
68074;SDS011;54864;52.002;5.468;2023-12-07T02:47:50;18.73;;;13.07;;
68074;SDS011;54864;52.002;5.468;2023-12-07T02:49:12;18.10;;;12.45;;
68074;SDS011;54864;52.002;5.468;2023-12-07T02:50:33;19.85;;;13.15;;
68074;SDS011;54864;52.002;5.468;2023-12-07T02:51:55;17.38;;;13.07;;
68074;SDS011;54864;52.002;5.468;2023-12-07T02:53:16;19.15;;;13.18;;
68074;SDS011;54864;52.002;5.468;2023-12-07T02:54:38;19.23;;;13.05;;
68074;SDS011;54864;52.002;5.468;2023-12-07T02:55:59;18.33;;;12.77;;
68074;SDS011;54864;52.002;5.468;2023-12-07T02:57:23;20.42;;;12.98;;
68074;SDS011;54864;52.002;5.468;2023-12-07T02:58:44;23.10;;;13.63;;
68074;SDS011;54864;52.002;5.468;2023-12-07T03:00:06;15.65;;;12.57;;
68074;SDS011;54864;52.002;5.468;2023-12-07T03:01:28;17.23;;;13.55;;
68074;SDS011;54864;52.002;5.468;2023-12-07T03:02:50;21.52;;;13.48;;
68074;SDS011;54864;52.002;5.468;2023-12-07T03:04:12;19.00;;;13.40;;
68074;SDS011;54864;52.002;5.468;2023-12-07T03:05:34;19.58;;;13.13;;
68074;SDS011;54864;52.002;5.468;2023-12-07T03:06:55;18.55;;;13.85;;
68074;SDS011;54864;52.002;5.468;2023-12-07T03:08:19;20.50;;;14.23;;
68074;SDS011;54864;52.002;5.468;2023-12-07T03:09:40;23.10;;;13.48;;
68074;SDS011;54864;52.002;5.468;2023-12-07T03:11:02;17.83;;;13.68;;
68074;SDS011;54864;52.002;5.468;2023-12-07T03:12:25;17.95;;;13.32;;
68074;SDS011;54864;52.002;5.468;2023-12-07T03:13:47;18.35;;;12.55;;
68074;SDS011;54864;52.002;5.468;2023-12-07T03:15:08;21.00;;;13.63;;
68074;SDS011;54864;52.002;5.468;2023-12-07T03:16:31;19.63;;;13.05;;
68074;SDS011;54864;52.002;5.468;2023-12-07T03:17:52;23.75;;;14.50;;
68074;SDS011;54864;52.002;5.468;2023-12-07T03:19:14;21.75;;;13.60;;
68074;SDS011;54864;52.002;5.468;2023-12-07T03:20:35;26.60;;;14.40;;
68074;SDS011;54864;52.002;5.468;2023-12-07T03:21:57;24.65;;;13.77;;
68074;SDS011;54864;52.002;5.468;2023-12-07T03:23:18;27.88;;;14.95;;
68074;SDS011;54864;52.002;5.468;2023-12-07T03:24:43;27.67;;;14.85;;
68074;SDS011;54864;52.002;5.468;2023-12-07T03:26:06;26.98;;;14.48;;
68074;SDS011;54864;52.002;5.468;2023-12-07T03:27:29;23.17;;;14.32;;
68074;SDS011;54864;52.002;5.468;2023-12-07T03:28:50;29.20;;;14.60;;
68074;SDS011;54864;52.002;5.468;2023-12-07T03:30:13;23.60;;;15.45;;
68074;SDS011;54864;52.002;5.468;2023-12-07T03:31:34;30.42;;;16.60;;
68074;SDS011;54864;52.002;5.468;2023-12-07T03:32:56;28.55;;;15.02;;
68074;SDS011;54864;52.002;5.468;2023-12-07T03:34:17;29.80;;;16.15;;
68074;SDS011;54864;52.002;5.468;2023-12-07T03:35:39;33.13;;;16.73;;
68074;SDS011;54864;52.002;5.468;2023-12-07T03:37:00;29.00;;;16.67;;
68074;SDS011;54864;52.002;5.468;2023-12-07T03:38:23;28.92;;;16.38;;
68074;SDS011;54864;52.002;5.468;2023-12-07T03:39:44;32.50;;;17.27;;
68074;SDS011;54864;52.002;5.468;2023-12-07T03:41:06;33.05;;;17.50;;
68074;SDS011;54864;52.002;5.468;2023-12-07T03:42:27;31.92;;;17.27;;
68074;SDS011;54864;52.002;5.468;2023-12-07T03:43:51;36.17;;;17.58;;
68074;SDS011;54864;52.002;5.468;2023-12-07T03:45:12;42.60;;;19.13;;
68074;SDS011;54864;52.002;5.468;2023-12-07T03:46:34;41.15;;;19.15;;
68074;SDS011;54864;52.002;5.468;2023-12-07T03:47:55;53.17;;;19.02;;
68074;SDS011;54864;52.002;5.468;2023-12-07T03:49:17;48.72;;;19.15;;
68074;SDS011;54864;52.002;5.468;2023-12-07T03:50:39;35.53;;;19.73;;
68074;SDS011;54864;52.002;5.468;2023-12-07T03:52:01;43.35;;;19.85;;
68074;SDS011;54864;52.002;5.468;2023-12-07T03:53:22;40.08;;;19.67;;
68074;SDS011;54864;52.002;5.468;2023-12-07T03:54:44;39.38;;;19.77;;
68074;SDS011;54864;52.002;5.468;2023-12-07T03:56:06;37.33;;;19.35;;
68074;SDS011;54864;52.002;5.468;2023-12-07T03:57:28;49.00;;;19.48;;
68074;SDS011;54864;52.002;5.468;2023-12-07T03:58:51;41.22;;;19.73;;
68074;SDS011;54864;52.002;5.468;2023-12-07T04:00:13;58.88;;;19.73;;
68074;SDS011;54864;52.002;5.468;2023-12-07T04:01:35;52.20;;;19.70;;
68074;SDS011;54864;52.002;5.468;2023-12-07T04:02:57;37.03;;;19.40;;
68074;SDS011;54864;52.002;5.468;2023-12-07T04:04:18;48.63;;;19.73;;
68074;SDS011;54864;52.002;5.468;2023-12-07T04:05:40;36.45;;;19.38;;
68074;SDS011;54864;52.002;5.468;2023-12-07T04:07:01;38.33;;;18.63;;
68074;SDS011;54864;52.002;5.468;2023-12-07T04:08:24;63.20;;;20.15;;
68074;SDS011;54864;52.002;5.468;2023-12-07T04:09:45;45.35;;;19.30;;
68074;SDS011;54864;52.002;5.468;2023-12-07T04:11:07;55.17;;;18.90;;
68074;SDS011;54864;52.002;5.468;2023-12-07T04:12:28;49.30;;;19.33;;
68074;SDS011;54864;52.002;5.468;2023-12-07T04:13:52;55.72;;;20.42;;
68074;SDS011;54864;52.002;5.468;2023-12-07T04:15:13;42.08;;;18.88;;
68074;SDS011;54864;52.002;5.468;2023-12-07T04:16:35;57.33;;;18.10;;
68074;SDS011;54864;52.002;5.468;2023-12-07T04:17:56;56.67;;;18.65;;
68074;SDS011;54864;52.002;5.468;2023-12-07T04:19:18;46.80;;;18.52;;
68074;SDS011;54864;52.002;5.468;2023-12-07T04:20:39;42.40;;;18.20;;
68074;SDS011;54864;52.002;5.468;2023-12-07T04:22:02;49.83;;;19.20;;
68074;SDS011;54864;52.002;5.468;2023-12-07T04:23:23;56.50;;;19.00;;
68074;SDS011;54864;52.002;5.468;2023-12-07T04:24:45;43.58;;;17.75;;
68074;SDS011;54864;52.002;5.468;2023-12-07T04:26:06;41.23;;;18.27;;
68074;SDS011;54864;52.002;5.468;2023-12-07T04:27:28;44.58;;;17.90;;
68074;SDS011;54864;52.002;5.468;2023-12-07T04:28:49;39.97;;;17.55;;
68074;SDS011;54864;52.002;5.468;2023-12-07T04:30:13;40.42;;;18.05;;
68074;SDS011;54864;52.002;5.468;2023-12-07T04:31:34;41.20;;;18.67;;
68074;SDS011;54864;52.002;5.468;2023-12-07T04:32:57;40.50;;;18.20;;
68074;SDS011;54864;52.002;5.468;2023-12-07T04:34:18;29.38;;;17.23;;
68074;SDS011;54864;52.002;5.468;2023-12-07T04:35:40;41.92;;;17.70;;
68074;SDS011;54864;52.002;5.468;2023-12-07T04:37:01;39.05;;;17.52;;
68074;SDS011;54864;52.002;5.468;2023-12-07T04:38:24;50.13;;;17.75;;
68074;SDS011;54864;52.002;5.468;2023-12-07T04:39:45;37.07;;;17.77;;
68074;SDS011;54864;52.002;5.468;2023-12-07T04:41:07;41.35;;;17.05;;
68074;SDS011;54864;52.002;5.468;2023-12-07T04:42:28;45.72;;;18.38;;
68074;SDS011;54864;52.002;5.468;2023-12-07T04:43:50;43.78;;;17.40;;
68074;SDS011;54864;52.002;5.468;2023-12-07T04:45:12;40.47;;;17.88;;
68074;SDS011;54864;52.002;5.468;2023-12-07T04:46:35;39.25;;;17.75;;
68074;SDS011;54864;52.002;5.468;2023-12-07T04:47:56;27.98;;;16.67;;
68074;SDS011;54864;52.002;5.468;2023-12-07T04:49:18;37.85;;;17.60;;
68074;SDS011;54864;52.002;5.468;2023-12-07T04:50:39;45.25;;;18.73;;
68074;SDS011;54864;52.002;5.468;2023-12-07T04:52:01;42.10;;;18.02;;
68074;SDS011;54864;52.002;5.468;2023-12-07T04:53:23;45.43;;;17.93;;
68074;SDS011;54864;52.002;5.468;2023-12-07T04:54:45;42.05;;;17.13;;
68074;SDS011;54864;52.002;5.468;2023-12-07T04:56:06;41.95;;;17.35;;
68074;SDS011;54864;52.002;5.468;2023-12-07T04:57:28;38.53;;;18.13;;
68074;SDS011;54864;52.002;5.468;2023-12-07T04:58:49;38.08;;;17.92;;
68074;SDS011;54864;52.002;5.468;2023-12-07T05:00:13;47.60;;;19.45;;
68074;SDS011;54864;52.002;5.468;2023-12-07T05:01:35;39.05;;;17.27;;
68074;SDS011;54864;52.002;5.468;2023-12-07T05:02:57;43.45;;;17.50;;
68074;SDS011;54864;52.002;5.468;2023-12-07T05:04:18;48.35;;;17.92;;
68074;SDS011;54864;52.002;5.468;2023-12-07T05:05:40;39.05;;;17.48;;
68074;SDS011;54864;52.002;5.468;2023-12-07T05:07:02;45.50;;;17.92;;
68074;SDS011;54864;52.002;5.468;2023-12-07T05:08:24;38.58;;;17.23;;
68074;SDS011;54864;52.002;5.468;2023-12-07T05:09:45;43.20;;;17.85;;
68074;SDS011;54864;52.002;5.468;2023-12-07T05:11:07;54.78;;;18.13;;
68074;SDS011;54864;52.002;5.468;2023-12-07T05:12:28;49.72;;;19.25;;
68074;SDS011;54864;52.002;5.468;2023-12-07T05:13:50;50.17;;;18.52;;
68074;SDS011;54864;52.002;5.468;2023-12-07T05:15:13;84.00;;;21.70;;
68074;SDS011;54864;52.002;5.468;2023-12-07T05:16:35;64.03;;;19.42;;
68074;SDS011;54864;52.002;5.468;2023-12-07T05:17:56;69.65;;;20.17;;
68074;SDS011;54864;52.002;5.468;2023-12-07T05:19:19;53.08;;;18.85;;
68074;SDS011;54864;52.002;5.468;2023-12-07T05:20:41;61.50;;;19.23;;
68074;SDS011;54864;52.002;5.468;2023-12-07T05:22:03;63.05;;;20.50;;
68074;SDS011;54864;52.002;5.468;2023-12-07T05:23:24;53.15;;;20.15;;
68074;SDS011;54864;52.002;5.468;2023-12-07T05:24:46;50.77;;;19.40;;
68074;SDS011;54864;52.002;5.468;2023-12-07T05:26:07;64.05;;;20.73;;
68074;SDS011;54864;52.002;5.468;2023-12-07T05:27:31;54.05;;;20.38;;
68074;SDS011;54864;52.002;5.468;2023-12-07T05:28:52;48.35;;;19.73;;
68074;SDS011;54864;52.002;5.468;2023-12-07T05:30:15;49.47;;;19.63;;
68074;SDS011;54864;52.002;5.468;2023-12-07T05:31:37;49.25;;;20.77;;
68074;SDS011;54864;52.002;5.468;2023-12-07T05:32:59;43.28;;;20.42;;
68074;SDS011;54864;52.002;5.468;2023-12-07T05:34:21;47.00;;;20.87;;
68074;SDS011;54864;52.002;5.468;2023-12-07T05:35:43;49.70;;;20.60;;
68074;SDS011;54864;52.002;5.468;2023-12-07T05:37:04;45.83;;;20.30;;
68074;SDS011;54864;52.002;5.468;2023-12-07T05:38:26;50.08;;;20.63;;
68074;SDS011;54864;52.002;5.468;2023-12-07T05:39:48;45.67;;;20.35;;
68074;SDS011;54864;52.002;5.468;2023-12-07T05:41:10;46.72;;;20.75;;
68074;SDS011;54864;52.002;5.468;2023-12-07T05:42:33;49.40;;;20.17;;
68074;SDS011;54864;52.002;5.468;2023-12-07T05:43:55;45.92;;;20.67;;
68074;SDS011;54864;52.002;5.468;2023-12-07T05:45:17;54.90;;;21.67;;
68074;SDS011;54864;52.002;5.468;2023-12-07T05:46:40;49.35;;;21.15;;
68074;SDS011;54864;52.002;5.468;2023-12-07T05:48:04;48.03;;;20.73;;
68074;SDS011;54864;52.002;5.468;2023-12-07T05:49:26;47.05;;;21.52;;
68074;SDS011;54864;52.002;5.468;2023-12-07T05:50:48;53.45;;;21.85;;
68074;SDS011;54864;52.002;5.468;2023-12-07T05:52:10;45.08;;;22.73;;
68074;SDS011;54864;52.002;5.468;2023-12-07T05:53:32;48.55;;;21.42;;
68074;SDS011;54864;52.002;5.468;2023-12-07T05:54:53;54.03;;;22.25;;
68074;SDS011;54864;52.002;5.468;2023-12-07T05:56:18;62.08;;;22.15;;
68074;SDS011;54864;52.002;5.468;2023-12-07T05:57:39;59.03;;;21.55;;
68074;SDS011;54864;52.002;5.468;2023-12-07T05:59:02;54.58;;;21.05;;
68074;SDS011;54864;52.002;5.468;2023-12-07T06:00:24;57.65;;;21.00;;
68074;SDS011;54864;52.002;5.468;2023-12-07T06:01:46;56.35;;;21.40;;
68074;SDS011;54864;52.002;5.468;2023-12-07T06:03:07;89.00;;;22.75;;
68074;SDS011;54864;52.002;5.468;2023-12-07T06:04:30;77.25;;;20.35;;
68074;SDS011;54864;52.002;5.468;2023-12-07T06:05:51;88.15;;;20.65;;
68074;SDS011;54864;52.002;5.468;2023-12-07T06:07:13;84.07;;;20.60;;
68074;SDS011;54864;52.002;5.468;2023-12-07T06:08:34;98.85;;;20.00;;
68074;SDS011;54864;52.002;5.468;2023-12-07T06:09:56;87.72;;;20.17;;
68074;SDS011;54864;52.002;5.468;2023-12-07T06:11:18;90.55;;;19.05;;
68074;SDS011;54864;52.002;5.468;2023-12-07T06:12:39;81.65;;;20.13;;
68074;SDS011;54864;52.002;5.468;2023-12-07T06:14:01;82.60;;;19.65;;
68074;SDS011;54864;52.002;5.468;2023-12-07T06:15:24;98.97;;;21.25;;
68074;SDS011;54864;52.002;5.468;2023-12-07T06:16:46;120.75;;;20.83;;
68074;SDS011;54864;52.002;5.468;2023-12-07T06:18:07;119.72;;;20.92;;
68074;SDS011;54864;52.002;5.468;2023-12-07T06:19:29;105.65;;;21.25;;
68074;SDS011;54864;52.002;5.468;2023-12-07T06:20:51;108.97;;;22.27;;
68074;SDS011;54864;52.002;5.468;2023-12-07T06:22:13;100.40;;;21.95;;
68074;SDS011;54864;52.002;5.468;2023-12-07T06:23:34;72.63;;;20.67;;
68074;SDS011;54864;52.002;5.468;2023-12-07T06:24:56;72.55;;;20.80;;
68074;SDS011;54864;52.002;5.468;2023-12-07T06:26:17;93.00;;;21.90;;
68074;SDS011;54864;52.002;5.468;2023-12-07T06:27:39;75.22;;;20.58;;
68074;SDS011;54864;52.002;5.468;2023-12-07T06:29:00;77.20;;;21.08;;
68074;SDS011;54864;52.002;5.468;2023-12-07T06:30:23;98.05;;;22.38;;
68074;SDS011;54864;52.002;5.468;2023-12-07T06:31:45;92.97;;;20.92;;
68074;SDS011;54864;52.002;5.468;2023-12-07T06:33:07;69.68;;;22.08;;
68074;SDS011;54864;52.002;5.468;2023-12-07T06:34:29;68.28;;;20.75;;
68074;SDS011;54864;52.002;5.468;2023-12-07T06:35:51;82.88;;;20.80;;
68074;SDS011;54864;52.002;5.468;2023-12-07T06:37:12;82.00;;;21.00;;
68074;SDS011;54864;52.002;5.468;2023-12-07T06:38:34;67.93;;;20.95;;
68074;SDS011;54864;52.002;5.468;2023-12-07T06:39:55;84.53;;;20.90;;
68074;SDS011;54864;52.002;5.468;2023-12-07T06:41:17;65.13;;;20.55;;
68074;SDS011;54864;52.002;5.468;2023-12-07T06:42:39;73.38;;;20.75;;
68074;SDS011;54864;52.002;5.468;2023-12-07T06:44:01;71.28;;;19.85;;
68074;SDS011;54864;52.002;5.468;2023-12-07T06:45:22;74.85;;;21.50;;
68074;SDS011;54864;52.002;5.468;2023-12-07T06:46:46;85.63;;;20.73;;
68074;SDS011;54864;52.002;5.468;2023-12-07T06:48:07;73.97;;;19.80;;
68074;SDS011;54864;52.002;5.468;2023-12-07T06:49:29;69.78;;;20.05;;
68074;SDS011;54864;52.002;5.468;2023-12-07T06:50:50;69.63;;;20.40;;
68074;SDS011;54864;52.002;5.468;2023-12-07T06:52:12;64.68;;;20.98;;
68074;SDS011;54864;52.002;5.468;2023-12-07T06:53:33;63.22;;;19.65;;
68074;SDS011;54864;52.002;5.468;2023-12-07T06:54:55;84.65;;;21.38;;
68074;SDS011;54864;52.002;5.468;2023-12-07T06:56:16;76.55;;;20.48;;
68074;SDS011;54864;52.002;5.468;2023-12-07T06:57:38;61.38;;;20.13;;
68074;SDS011;54864;52.002;5.468;2023-12-07T06:58:59;81.47;;;21.08;;
68074;SDS011;54864;52.002;5.468;2023-12-07T07:00:22;97.90;;;21.33;;
68074;SDS011;54864;52.002;5.468;2023-12-07T07:01:46;84.43;;;21.80;;
68074;SDS011;54864;52.002;5.468;2023-12-07T07:03:09;75.78;;;21.73;;
68074;SDS011;54864;52.002;5.468;2023-12-07T07:04:30;61.40;;;21.23;;
68074;SDS011;54864;52.002;5.468;2023-12-07T07:05:52;64.25;;;19.98;;
68074;SDS011;54864;52.002;5.468;2023-12-07T07:07:14;60.53;;;21.13;;
68074;SDS011;54864;52.002;5.468;2023-12-07T07:08:36;60.17;;;21.13;;
68074;SDS011;54864;52.002;5.468;2023-12-07T07:09:57;52.20;;;20.95;;
68074;SDS011;54864;52.002;5.468;2023-12-07T07:11:19;69.18;;;20.95;;
68074;SDS011;54864;52.002;5.468;2023-12-07T07:12:40;57.13;;;21.08;;
68074;SDS011;54864;52.002;5.468;2023-12-07T07:14:02;62.45;;;20.65;;
68074;SDS011;54864;52.002;5.468;2023-12-07T07:15:23;66.20;;;21.65;;
68074;SDS011;54864;52.002;5.468;2023-12-07T07:16:47;46.67;;;20.58;;
68074;SDS011;54864;52.002;5.468;2023-12-07T07:18:08;62.90;;;21.92;;
68074;SDS011;54864;52.002;5.468;2023-12-07T07:19:30;64.20;;;21.02;;
68074;SDS011;54864;52.002;5.468;2023-12-07T07:20:52;88.35;;;22.35;;
68074;SDS011;54864;52.002;5.468;2023-12-07T07:22:14;67.97;;;21.70;;
68074;SDS011;54864;52.002;5.468;2023-12-07T07:23:35;98.43;;;24.88;;
68074;SDS011;54864;52.002;5.468;2023-12-07T07:24:57;94.35;;;22.77;;
68074;SDS011;54864;52.002;5.468;2023-12-07T07:26:18;71.50;;;22.65;;
68074;SDS011;54864;52.002;5.468;2023-12-07T07:27:40;63.38;;;21.25;;
68074;SDS011;54864;52.002;5.468;2023-12-07T07:29:02;58.10;;;22.35;;
68074;SDS011;54864;52.002;5.468;2023-12-07T07:30:24;72.38;;;23.38;;
68074;SDS011;54864;52.002;5.468;2023-12-07T07:31:46;79.90;;;22.67;;
68074;SDS011;54864;52.002;5.468;2023-12-07T07:33:09;58.50;;;21.85;;
68074;SDS011;54864;52.002;5.468;2023-12-07T07:34:30;65.97;;;21.60;;
68074;SDS011;54864;52.002;5.468;2023-12-07T07:35:52;64.97;;;21.67;;
68074;SDS011;54864;52.002;5.468;2023-12-07T07:37:13;68.70;;;21.85;;
68074;SDS011;54864;52.002;5.468;2023-12-07T07:38:35;61.35;;;22.13;;
68074;SDS011;54864;52.002;5.468;2023-12-07T07:39:56;79.47;;;23.77;;
68074;SDS011;54864;52.002;5.468;2023-12-07T07:41:20;69.15;;;25.42;;
68074;SDS011;54864;52.002;5.468;2023-12-07T07:42:41;70.53;;;25.45;;
68074;SDS011;54864;52.002;5.468;2023-12-07T07:44:03;88.80;;;25.73;;
68074;SDS011;54864;52.002;5.468;2023-12-07T07:45:24;64.35;;;25.00;;
68074;SDS011;54864;52.002;5.468;2023-12-07T07:46:48;60.53;;;24.42;;
68074;SDS011;54864;52.002;5.468;2023-12-07T07:48:09;48.70;;;25.10;;
68074;SDS011;54864;52.002;5.468;2023-12-07T07:49:31;61.92;;;24.52;;
68074;SDS011;54864;52.002;5.468;2023-12-07T07:50:52;83.78;;;24.80;;
68074;SDS011;54864;52.002;5.468;2023-12-07T07:52:14;60.25;;;24.48;;
68074;SDS011;54864;52.002;5.468;2023-12-07T07:53:35;82.03;;;24.42;;
68074;SDS011;54864;52.002;5.468;2023-12-07T07:54:57;80.00;;;25.98;;
68074;SDS011;54864;52.002;5.468;2023-12-07T07:56:18;60.95;;;24.60;;
68074;SDS011;54864;52.002;5.468;2023-12-07T07:57:40;89.10;;;26.13;;
68074;SDS011;54864;52.002;5.468;2023-12-07T07:59:01;74.15;;;25.77;;